Terminal Aerodrome Forecast
Issued by NWS

Home | Current Version | Previous Version | Graphics & Text | Print | Product List | Glossary On
Versions: 1 2 3 4 5 6 7 8 9 10 11 12 13 14 15 16 17 18 19 20 21 22 23 24 25 26 27 28
889
FTUS43 KLOT 171458 AAA
TAFORD
TAF AMD
KORD 171458Z 1715/1818 26006KT P6SM SCT080 BKN250
     FM171600 27007KT P6SM BKN040 BKN120
     FM172000 32009KT P6SM SCT020 BKN035
     FM180000 02007KT P6SM SCT180 BKN250
     FM181200 06006KT P6SM SCT120 BKN250=

USA.gov is the U.S. government's official web portal to all federal, state and local government web resources and services.